sensor_id;sensor_type;location;lat;lon;timestamp;P1;durP1;ratioP1;P2;durP2;ratioP2
66626;SDS011;53498;50.422;14.912;2023-05-20T00:00:03;17.85;;;10.93;;
66626;SDS011;53498;50.422;14.912;2023-05-20T00:02:49;15.65;;;10.57;;
66626;SDS011;53498;50.422;14.912;2023-05-20T00:05:15;16.48;;;9.65;;
66626;SDS011;53498;50.422;14.912;2023-05-20T00:07:40;15.20;;;9.93;;
66626;SDS011;53498;50.422;14.912;2023-05-20T00:10:06;16.42;;;9.73;;
66626;SDS011;53498;50.422;14.912;2023-05-20T00:12:32;15.57;;;9.57;;
66626;SDS011;53498;50.422;14.912;2023-05-20T00:14:59;16.80;;;10.27;;
66626;SDS011;53498;50.422;14.912;2023-05-20T00:17:25;16.42;;;10.25;;
66626;SDS011;53498;50.422;14.912;2023-05-20T00:19:52;14.35;;;9.50;;
66626;SDS011;53498;50.422;14.912;2023-05-20T00:22:18;16.35;;;9.75;;
66626;SDS011;53498;50.422;14.912;2023-05-20T00:24:45;14.95;;;9.85;;
66626;SDS011;53498;50.422;14.912;2023-05-20T00:27:10;16.05;;;9.15;;
66626;SDS011;53498;50.422;14.912;2023-05-20T00:29:36;14.07;;;9.38;;
66626;SDS011;53498;50.422;14.912;2023-05-20T00:32:01;14.20;;;9.65;;
66626;SDS011;53498;50.422;14.912;2023-05-20T00:34:27;16.83;;;11.20;;
66626;SDS011;53498;50.422;14.912;2023-05-20T00:36:52;15.27;;;9.48;;
66626;SDS011;53498;50.422;14.912;2023-05-20T00:39:18;13.82;;;9.35;;
66626;SDS011;53498;50.422;14.912;2023-05-20T00:41:43;15.02;;;8.80;;
66626;SDS011;53498;50.422;14.912;2023-05-20T00:44:09;17.33;;;10.02;;
66626;SDS011;53498;50.422;14.912;2023-05-20T00:46:35;14.70;;;9.27;;
66626;SDS011;53498;50.422;14.912;2023-05-20T00:49:01;14.63;;;9.43;;
66626;SDS011;53498;50.422;14.912;2023-05-20T00:51:26;16.98;;;10.73;;
66626;SDS011;53498;50.422;14.912;2023-05-20T00:53:53;15.73;;;9.52;;
66626;SDS011;53498;50.422;14.912;2023-05-20T00:56:20;17.17;;;10.52;;
66626;SDS011;53498;50.422;14.912;2023-05-20T00:58:46;14.90;;;9.60;;
66626;SDS011;53498;50.422;14.912;2023-05-20T01:01:11;15.13;;;9.40;;
66626;SDS011;53498;50.422;14.912;2023-05-20T01:03:38;15.65;;;9.93;;
66626;SDS011;53498;50.422;14.912;2023-05-20T01:06:04;14.90;;;10.38;;
66626;SDS011;53498;50.422;14.912;2023-05-20T01:08:30;14.45;;;10.13;;
66626;SDS011;53498;50.422;14.912;2023-05-20T01:11:02;15.60;;;9.80;;
66626;SDS011;53498;50.422;14.912;2023-05-20T01:13:53;13.45;;;8.77;;
66626;SDS011;53498;50.422;14.912;2023-05-20T01:16:21;14.70;;;9.35;;
66626;SDS011;53498;50.422;14.912;2023-05-20T01:18:49;14.23;;;8.93;;
66626;SDS011;53498;50.422;14.912;2023-05-20T01:21:15;16.95;;;9.48;;
66626;SDS011;53498;50.422;14.912;2023-05-20T01:23:42;15.77;;;10.40;;
66626;SDS011;53498;50.422;14.912;2023-05-20T01:26:07;13.18;;;9.27;;
66626;SDS011;53498;50.422;14.912;2023-05-20T01:28:35;13.52;;;9.27;;
66626;SDS011;53498;50.422;14.912;2023-05-20T01:31:03;18.02;;;9.73;;
66626;SDS011;53498;50.422;14.912;2023-05-20T01:33:31;13.65;;;9.57;;
66626;SDS011;53498;50.422;14.912;2023-05-20T01:36:00;18.02;;;10.45;;
66626;SDS011;53498;50.422;14.912;2023-05-20T01:38:26;15.88;;;9.75;;
66626;SDS011;53498;50.422;14.912;2023-05-20T01:40:52;14.98;;;10.00;;
66626;SDS011;53498;50.422;14.912;2023-05-20T01:43:19;17.13;;;10.10;;
66626;SDS011;53498;50.422;14.912;2023-05-20T01:45:45;16.42;;;10.02;;
66626;SDS011;53498;50.422;14.912;2023-05-20T01:48:11;15.00;;;9.45;;
66626;SDS011;53498;50.422;14.912;2023-05-20T01:50:37;14.35;;;9.10;;
66626;SDS011;53498;50.422;14.912;2023-05-20T01:53:03;15.93;;;10.07;;
66626;SDS011;53498;50.422;14.912;2023-05-20T01:55:29;14.93;;;9.63;;
66626;SDS011;53498;50.422;14.912;2023-05-20T01:57:55;17.05;;;10.68;;
66626;SDS011;53498;50.422;14.912;2023-05-20T02:00:21;17.45;;;10.23;;
66626;SDS011;53498;50.422;14.912;2023-05-20T02:02:47;14.85;;;9.43;;
66626;SDS011;53498;50.422;14.912;2023-05-20T02:05:12;21.45;;;11.55;;
66626;SDS011;53498;50.422;14.912;2023-05-20T02:07:38;16.35;;;10.20;;
66626;SDS011;53498;50.422;14.912;2023-05-20T02:10:04;17.48;;;9.93;;
66626;SDS011;53498;50.422;14.912;2023-05-20T02:12:30;13.60;;;8.38;;
66626;SDS011;53498;50.422;14.912;2023-05-20T02:14:55;14.13;;;8.93;;
66626;SDS011;53498;50.422;14.912;2023-05-20T02:17:21;14.07;;;8.55;;
66626;SDS011;53498;50.422;14.912;2023-05-20T02:19:46;16.77;;;8.80;;
66626;SDS011;53498;50.422;14.912;2023-05-20T02:22:13;13.73;;;8.30;;
66626;SDS011;53498;50.422;14.912;2023-05-20T02:24:38;12.90;;;8.50;;
66626;SDS011;53498;50.422;14.912;2023-05-20T02:27:04;13.25;;;8.43;;
66626;SDS011;53498;50.422;14.912;2023-05-20T02:29:30;10.00;;;7.60;;
66626;SDS011;53498;50.422;14.912;2023-05-20T02:31:56;14.00;;;8.15;;
66626;SDS011;53498;50.422;14.912;2023-05-20T02:34:22;13.90;;;8.65;;
66626;SDS011;53498;50.422;14.912;2023-05-20T02:36:50;11.40;;;7.95;;
66626;SDS011;53498;50.422;14.912;2023-05-20T02:39:15;12.23;;;8.20;;
66626;SDS011;53498;50.422;14.912;2023-05-20T02:41:41;14.38;;;8.52;;
66626;SDS011;53498;50.422;14.912;2023-05-20T02:44:06;11.68;;;8.70;;
66626;SDS011;53498;50.422;14.912;2023-05-20T02:46:32;12.80;;;7.47;;
66626;SDS011;53498;50.422;14.912;2023-05-20T02:48:58;14.35;;;8.05;;
66626;SDS011;53498;50.422;14.912;2023-05-20T02:51:24;10.95;;;7.25;;
66626;SDS011;53498;50.422;14.912;2023-05-20T02:53:49;12.48;;;8.43;;
66626;SDS011;53498;50.422;14.912;2023-05-20T02:56:15;13.45;;;8.18;;
66626;SDS011;53498;50.422;14.912;2023-05-20T02:58:40;10.48;;;7.38;;
66626;SDS011;53498;50.422;14.912;2023-05-20T03:01:06;13.70;;;8.57;;
66626;SDS011;53498;50.422;14.912;2023-05-20T03:03:32;13.32;;;7.82;;
66626;SDS011;53498;50.422;14.912;2023-05-20T03:05:58;11.68;;;7.82;;
66626;SDS011;53498;50.422;14.912;2023-05-20T03:08:23;12.10;;;8.10;;
66626;SDS011;53498;50.422;14.912;2023-05-20T03:10:49;13.80;;;9.05;;
66626;SDS011;53498;50.422;14.912;2023-05-20T03:13:14;15.68;;;9.40;;
66626;SDS011;53498;50.422;14.912;2023-05-20T03:15:40;13.93;;;8.90;;
66626;SDS011;53498;50.422;14.912;2023-05-20T03:18:08;11.68;;;7.65;;
66626;SDS011;53498;50.422;14.912;2023-05-20T03:20:34;12.25;;;7.63;;
66626;SDS011;53498;50.422;14.912;2023-05-20T03:23:02;13.00;;;8.35;;
66626;SDS011;53498;50.422;14.912;2023-05-20T03:25:28;10.38;;;7.03;;
66626;SDS011;53498;50.422;14.912;2023-05-20T03:27:55;12.02;;;7.55;;
66626;SDS011;53498;50.422;14.912;2023-05-20T03:30:22;14.02;;;8.85;;
66626;SDS011;53498;50.422;14.912;2023-05-20T03:32:48;10.93;;;6.82;;
66626;SDS011;53498;50.422;14.912;2023-05-20T03:35:14;14.77;;;8.63;;
66626;SDS011;53498;50.422;14.912;2023-05-20T03:37:40;11.82;;;7.72;;
66626;SDS011;53498;50.422;14.912;2023-05-20T03:40:06;13.05;;;7.63;;
66626;SDS011;53498;50.422;14.912;2023-05-20T03:42:34;14.48;;;8.45;;
66626;SDS011;53498;50.422;14.912;2023-05-20T03:45:00;10.95;;;7.55;;
66626;SDS011;53498;50.422;14.912;2023-05-20T03:47:26;11.48;;;7.47;;
66626;SDS011;53498;50.422;14.912;2023-05-20T03:49:52;12.05;;;7.63;;
66626;SDS011;53498;50.422;14.912;2023-05-20T03:52:18;11.88;;;7.70;;
66626;SDS011;53498;50.422;14.912;2023-05-20T03:54:44;12.15;;;7.82;;
66626;SDS011;53498;50.422;14.912;2023-05-20T03:57:09;12.88;;;7.85;;
66626;SDS011;53498;50.422;14.912;2023-05-20T03:59:36;10.77;;;7.82;;
66626;SDS011;53498;50.422;14.912;2023-05-20T04:02:02;10.98;;;7.35;;
66626;SDS011;53498;50.422;14.912;2023-05-20T04:04:28;11.90;;;8.07;;
66626;SDS011;53498;50.422;14.912;2023-05-20T04:06:54;11.75;;;7.22;;
66626;SDS011;53498;50.422;14.912;2023-05-20T04:09:25;11.98;;;7.18;;
66626;SDS011;53498;50.422;14.912;2023-05-20T04:11:51;10.63;;;7.45;;
66626;SDS011;53498;50.422;14.912;2023-05-20T04:14:17;9.02;;;6.80;;
66626;SDS011;53498;50.422;14.912;2023-05-20T04:16:42;8.82;;;7.28;;
66626;SDS011;53498;50.422;14.912;2023-05-20T04:19:10;13.25;;;7.75;;
66626;SDS011;53498;50.422;14.912;2023-05-20T04:21:36;10.32;;;6.88;;
66626;SDS011;53498;50.422;14.912;2023-05-20T04:24:02;10.18;;;6.80;;
66626;SDS011;53498;50.422;14.912;2023-05-20T04:26:28;11.35;;;6.97;;
66626;SDS011;53498;50.422;14.912;2023-05-20T04:28:54;11.40;;;7.50;;
66626;SDS011;53498;50.422;14.912;2023-05-20T04:31:25;10.35;;;7.38;;
66626;SDS011;53498;50.422;14.912;2023-05-20T04:33:52;11.32;;;7.35;;
66626;SDS011;53498;50.422;14.912;2023-05-20T04:36:17;11.23;;;7.13;;
66626;SDS011;53498;50.422;14.912;2023-05-20T04:38:43;11.32;;;7.35;;
66626;SDS011;53498;50.422;14.912;2023-05-20T04:41:09;10.98;;;7.38;;
66626;SDS011;53498;50.422;14.912;2023-05-20T04:43:35;9.30;;;6.82;;
66626;SDS011;53498;50.422;14.912;2023-05-20T04:46:03;10.50;;;6.65;;
66626;SDS011;53498;50.422;14.912;2023-05-20T04:48:30;9.77;;;7.10;;
66626;SDS011;53498;50.422;14.912;2023-05-20T04:50:56;10.10;;;7.32;;
66626;SDS011;53498;50.422;14.912;2023-05-20T04:53:22;11.43;;;7.47;;
66626;SDS011;53498;50.422;14.912;2023-05-20T04:55:48;8.77;;;6.53;;
66626;SDS011;53498;50.422;14.912;2023-05-20T04:58:18;10.45;;;6.70;;
66626;SDS011;53498;50.422;14.912;2023-05-20T05:00:44;11.30;;;6.63;;
66626;SDS011;53498;50.422;14.912;2023-05-20T05:03:10;10.07;;;6.35;;
66626;SDS011;53498;50.422;14.912;2023-05-20T05:05:39;10.23;;;7.18;;
66626;SDS011;53498;50.422;14.912;2023-05-20T05:08:07;11.25;;;7.63;;
66626;SDS011;53498;50.422;14.912;2023-05-20T05:10:38;10.25;;;6.95;;
66626;SDS011;53498;50.422;14.912;2023-05-20T05:13:04;10.90;;;7.65;;
66626;SDS011;53498;50.422;14.912;2023-05-20T05:15:29;10.00;;;6.95;;
66626;SDS011;53498;50.422;14.912;2023-05-20T05:17:55;10.25;;;6.57;;
66626;SDS011;53498;50.422;14.912;2023-05-20T05:20:21;8.85;;;6.05;;
66626;SDS011;53498;50.422;14.912;2023-05-20T05:22:47;10.63;;;7.20;;
66626;SDS011;53498;50.422;14.912;2023-05-20T05:25:14;9.57;;;6.90;;
66626;SDS011;53498;50.422;14.912;2023-05-20T05:27:40;10.15;;;7.07;;
66626;SDS011;53498;50.422;14.912;2023-05-20T05:30:06;8.23;;;6.20;;
66626;SDS011;53498;50.422;14.912;2023-05-20T05:32:32;9.77;;;7.05;;
66626;SDS011;53498;50.422;14.912;2023-05-20T05:34:58;10.88;;;7.10;;
66626;SDS011;53498;50.422;14.912;2023-05-20T05:37:24;10.93;;;7.40;;
66626;SDS011;53498;50.422;14.912;2023-05-20T05:39:49;11.02;;;7.32;;
66626;SDS011;53498;50.422;14.912;2023-05-20T05:42:15;10.88;;;7.90;;
66626;SDS011;53498;50.422;14.912;2023-05-20T05:44:40;12.05;;;8.30;;
66626;SDS011;53498;50.422;14.912;2023-05-20T05:47:06;13.75;;;7.70;;
66626;SDS011;53498;50.422;14.912;2023-05-20T05:49:32;13.25;;;9.00;;
66626;SDS011;53498;50.422;14.912;2023-05-20T05:51:58;12.48;;;8.60;;
66626;SDS011;53498;50.422;14.912;2023-05-20T05:54:23;12.13;;;8.60;;
66626;SDS011;53498;50.422;14.912;2023-05-20T05:56:52;12.10;;;8.88;;
66626;SDS011;53498;50.422;14.912;2023-05-20T05:59:20;13.13;;;9.10;;
66626;SDS011;53498;50.422;14.912;2023-05-20T06:01:46;15.00;;;9.65;;
66626;SDS011;53498;50.422;14.912;2023-05-20T06:04:12;12.38;;;8.00;;
66626;SDS011;53498;50.422;14.912;2023-05-20T06:06:37;13.23;;;8.05;;
66626;SDS011;53498;50.422;14.912;2023-05-20T06:09:03;12.88;;;8.90;;
66626;SDS011;53498;50.422;14.912;2023-05-20T06:11:29;11.23;;;7.85;;
66626;SDS011;53498;50.422;14.912;2023-05-20T06:13:54;18.63;;;9.55;;
66626;SDS011;53498;50.422;14.912;2023-05-20T06:16:20;12.73;;;8.70;;
66626;SDS011;53498;50.422;14.912;2023-05-20T06:18:46;13.38;;;8.82;;
66626;SDS011;53498;50.422;14.912;2023-05-20T06:21:14;16.50;;;9.02;;
66626;SDS011;53498;50.422;14.912;2023-05-20T06:23:40;15.32;;;9.27;;
66626;SDS011;53498;50.422;14.912;2023-05-20T06:26:06;12.27;;;8.63;;
66626;SDS011;53498;50.422;14.912;2023-05-20T06:28:31;12.13;;;9.00;;
66626;SDS011;53498;50.422;14.912;2023-05-20T06:30:57;12.20;;;8.25;;
66626;SDS011;53498;50.422;14.912;2023-05-20T06:33:23;11.68;;;8.85;;
66626;SDS011;53498;50.422;14.912;2023-05-20T06:35:53;12.32;;;7.70;;
66626;SDS011;53498;50.422;14.912;2023-05-20T06:38:19;11.38;;;7.72;;
66626;SDS011;53498;50.422;14.912;2023-05-20T06:40:46;12.20;;;8.35;;
66626;SDS011;53498;50.422;14.912;2023-05-20T06:43:13;13.27;;;8.50;;
66626;SDS011;53498;50.422;14.912;2023-05-20T06:45:39;11.85;;;8.43;;
66626;SDS011;53498;50.422;14.912;2023-05-20T06:48:04;12.30;;;8.70;;
66626;SDS011;53498;50.422;14.912;2023-05-20T06:50:30;12.45;;;8.10;;
66626;SDS011;53498;50.422;14.912;2023-05-20T06:53:03;12.70;;;7.93;;
66626;SDS011;53498;50.422;14.912;2023-05-20T06:55:28;12.15;;;7.75;;
66626;SDS011;53498;50.422;14.912;2023-05-20T06:57:54;13.00;;;8.57;;
66626;SDS011;53498;50.422;14.912;2023-05-20T07:00:20;11.38;;;8.40;;
66626;SDS011;53498;50.422;14.912;2023-05-20T07:02:46;13.52;;;9.23;;
66626;SDS011;53498;50.422;14.912;2023-05-20T07:05:11;12.80;;;8.45;;
66626;SDS011;53498;50.422;14.912;2023-05-20T07:07:37;13.38;;;8.93;;
66626;SDS011;53498;50.422;14.912;2023-05-20T07:10:03;12.35;;;8.68;;
66626;SDS011;53498;50.422;14.912;2023-05-20T07:12:30;15.75;;;9.60;;
66626;SDS011;53498;50.422;14.912;2023-05-20T07:14:56;12.90;;;8.90;;
66626;SDS011;53498;50.422;14.912;2023-05-20T07:17:22;13.82;;;8.43;;
66626;SDS011;53498;50.422;14.912;2023-05-20T07:19:48;16.02;;;9.45;;
66626;SDS011;53498;50.422;14.912;2023-05-20T07:22:14;13.40;;;9.75;;
66626;SDS011;53498;50.422;14.912;2023-05-20T07:24:40;13.00;;;8.98;;
66626;SDS011;53498;50.422;14.912;2023-05-20T07:27:05;15.55;;;10.93;;
66626;SDS011;53498;50.422;14.912;2023-05-20T07:29:31;13.65;;;10.25;;
66626;SDS011;53498;50.422;14.912;2023-05-20T07:31:57;11.40;;;8.88;;
66626;SDS011;53498;50.422;14.912;2023-05-20T07:34:22;15.73;;;10.02;;
66626;SDS011;53498;50.422;14.912;2023-05-20T07:36:48;15.35;;;9.77;;
66626;SDS011;53498;50.422;14.912;2023-05-20T07:39:14;15.43;;;9.75;;
66626;SDS011;53498;50.422;14.912;2023-05-20T07:41:39;12.70;;;8.15;;
66626;SDS011;53498;50.422;14.912;2023-05-20T07:44:06;11.43;;;8.65;;
66626;SDS011;53498;50.422;14.912;2023-05-20T07:46:35;12.07;;;8.25;;
66626;SDS011;53498;50.422;14.912;2023-05-20T07:49:02;11.30;;;7.10;;
66626;SDS011;53498;50.422;14.912;2023-05-20T07:51:28;11.10;;;7.93;;
66626;SDS011;53498;50.422;14.912;2023-05-20T07:53:54;12.63;;;8.00;;
66626;SDS011;53498;50.422;14.912;2023-05-20T07:56:19;11.65;;;7.90;;
66626;SDS011;53498;50.422;14.912;2023-05-20T07:58:52;11.25;;;7.85;;
66626;SDS011;53498;50.422;14.912;2023-05-20T08:01:27;10.77;;;7.78;;
66626;SDS011;53498;50.422;14.912;2023-05-20T08:03:53;11.75;;;9.65;;
66626;SDS011;53498;50.422;14.912;2023-05-20T08:06:19;12.70;;;8.07;;
66626;SDS011;53498;50.422;14.912;2023-05-20T08:08:46;16.52;;;9.85;;
66626;SDS011;53498;50.422;14.912;2023-05-20T08:11:11;11.30;;;8.15;;
66626;SDS011;53498;50.422;14.912;2023-05-20T08:13:37;10.65;;;7.70;;
66626;SDS011;53498;50.422;14.912;2023-05-20T08:16:03;10.55;;;8.00;;
66626;SDS011;53498;50.422;14.912;2023-05-20T08:18:31;10.85;;;8.38;;
66626;SDS011;53498;50.422;14.912;2023-05-20T08:20:57;11.48;;;8.00;;
66626;SDS011;53498;50.422;14.912;2023-05-20T08:23:24;12.23;;;8.05;;
66626;SDS011;53498;50.422;14.912;2023-05-20T08:25:50;11.32;;;7.85;;
66626;SDS011;53498;50.422;14.912;2023-05-20T08:28:16;12.45;;;8.48;;
66626;SDS011;53498;50.422;14.912;2023-05-20T08:30:41;10.43;;;7.70;;
66626;SDS011;53498;50.422;14.912;2023-05-20T08:33:07;12.05;;;8.18;;
66626;SDS011;53498;50.422;14.912;2023-05-20T08:35:32;10.38;;;8.05;;
66626;SDS011;53498;50.422;14.912;2023-05-20T08:37:58;12.43;;;8.45;;
66626;SDS011;53498;50.422;14.912;2023-05-20T08:40:25;12.13;;;8.50;;
66626;SDS011;53498;50.422;14.912;2023-05-20T08:42:51;13.57;;;8.50;;
66626;SDS011;53498;50.422;14.912;2023-05-20T08:45:18;12.38;;;9.15;;
66626;SDS011;53498;50.422;14.912;2023-05-20T08:47:52;12.20;;;8.25;;
66626;SDS011;53498;50.422;14.912;2023-05-20T08:50:17;11.13;;;8.25;;
66626;SDS011;53498;50.422;14.912;2023-05-20T08:52:44;11.65;;;8.20;;
66626;SDS011;53498;50.422;14.912;2023-05-20T08:55:15;12.35;;;8.95;;
66626;SDS011;53498;50.422;14.912;2023-05-20T08:57:48;14.82;;;8.93;;
66626;SDS011;53498;50.422;14.912;2023-05-20T09:00:15;10.93;;;8.07;;
66626;SDS011;53498;50.422;14.912;2023-05-20T09:02:41;11.07;;;8.05;;
66626;SDS011;53498;50.422;14.912;2023-05-20T09:05:09;11.85;;;8.35;;
66626;SDS011;53498;50.422;14.912;2023-05-20T09:07:36;15.60;;;10.38;;
66626;SDS011;53498;50.422;14.912;2023-05-20T09:10:01;10.35;;;7.88;;
66626;SDS011;53498;50.422;14.912;2023-05-20T09:12:28;12.35;;;9.10;;
66626;SDS011;53498;50.422;14.912;2023-05-20T09:14:53;11.35;;;8.10;;
66626;SDS011;53498;50.422;14.912;2023-05-20T09:17:22;11.45;;;7.78;;
66626;SDS011;53498;50.422;14.912;2023-05-20T09:19:48;11.13;;;7.78;;
66626;SDS011;53498;50.422;14.912;2023-05-20T09:22:20;12.07;;;8.20;;
66626;SDS011;53498;50.422;14.912;2023-05-20T09:24:54;10.27;;;7.65;;
66626;SDS011;53498;50.422;14.912;2023-05-20T09:27:20;11.85;;;8.18;;
66626;SDS011;53498;50.422;14.912;2023-05-20T09:29:49;15.25;;;8.57;;
66626;SDS011;53498;50.422;14.912;2023-05-20T09:32:16;10.48;;;7.90;;
66626;SDS011;53498;50.422;14.912;2023-05-20T09:34:42;12.27;;;7.72;;
66626;SDS011;53498;50.422;14.912;2023-05-20T09:37:10;12.98;;;8.93;;
66626;SDS011;53498;50.422;14.912;2023-05-20T09:40:10;13.10;;;8.60;;
66626;SDS011;53498;50.422;14.912;2023-05-20T09:42:39;11.80;;;8.35;;
66626;SDS011;53498;50.422;14.912;2023-05-20T09:45:08;13.27;;;7.90;;
66626;SDS011;53498;50.422;14.912;2023-05-20T09:47:34;12.43;;;8.43;;
66626;SDS011;53498;50.422;14.912;2023-05-20T09:50:03;10.55;;;8.15;;
66626;SDS011;53498;50.422;14.912;2023-05-20T09:52:32;11.45;;;7.75;;
66626;SDS011;53498;50.422;14.912;2023-05-20T09:55:01;12.02;;;7.90;;
66626;SDS011;53498;50.422;14.912;2023-05-20T09:57:34;11.13;;;8.65;;
66626;SDS011;53498;50.422;14.912;2023-05-20T10:00:00;10.20;;;7.78;;
66626;SDS011;53498;50.422;14.912;2023-05-20T10:02:26;12.88;;;8.38;;
66626;SDS011;53498;50.422;14.912;2023-05-20T10:04:52;10.73;;;8.32;;
66626;SDS011;53498;50.422;14.912;2023-05-20T10:07:35;12.30;;;8.18;;
66626;SDS011;53498;50.422;14.912;2023-05-20T10:10:47;11.63;;;7.82;;
66626;SDS011;53498;50.422;14.912;2023-05-20T10:13:20;10.98;;;8.18;;
66626;SDS011;53498;50.422;14.912;2023-05-20T10:18:53;12.57;;;7.93;;
66626;SDS011;53498;50.422;14.912;2023-05-20T10:21:25;11.82;;;8.05;;
66626;SDS011;53498;50.422;14.912;2023-05-20T10:24:04;10.82;;;7.45;;
66626;SDS011;53498;50.422;14.912;2023-05-20T10:26:34;12.18;;;8.32;;
66626;SDS011;53498;50.422;14.912;2023-05-20T10:29:01;12.48;;;8.15;;
66626;SDS011;53498;50.422;14.912;2023-05-20T10:31:26;10.82;;;7.57;;
66626;SDS011;53498;50.422;14.912;2023-05-20T10:33:52;10.63;;;7.75;;
66626;SDS011;53498;50.422;14.912;2023-05-20T10:36:36;9.88;;;7.50;;
66626;SDS011;53498;50.422;14.912;2023-05-20T10:39:01;7.63;;;6.07;;
66626;SDS011;53498;50.422;14.912;2023-05-20T10:41:29;11.35;;;6.80;;
66626;SDS011;53498;50.422;14.912;2023-05-20T10:44:01;8.82;;;5.93;;
66626;SDS011;53498;50.422;14.912;2023-05-20T10:46:29;9.63;;;6.88;;
66626;SDS011;53498;50.422;14.912;2023-05-20T10:48:55;8.90;;;6.60;;
66626;SDS011;53498;50.422;14.912;2023-05-20T10:51:22;11.52;;;7.53;;
66626;SDS011;53498;50.422;14.912;2023-05-20T10:53:50;10.70;;;6.68;;
66626;SDS011;53498;50.422;14.912;2023-05-20T10:56:18;12.45;;;7.28;;
66626;SDS011;53498;50.422;14.912;2023-05-20T10:58:48;8.98;;;5.88;;
66626;SDS011;53498;50.422;14.912;2023-05-20T11:01:15;8.45;;;6.55;;
66626;SDS011;53498;50.422;14.912;2023-05-20T11:03:42;10.20;;;7.00;;
66626;SDS011;53498;50.422;14.912;2023-05-20T11:06:18;11.20;;;6.75;;
66626;SDS011;53498;50.422;14.912;2023-05-20T11:08:44;11.85;;;6.65;;
66626;SDS011;53498;50.422;14.912;2023-05-20T11:11:10;10.15;;;7.20;;
66626;SDS011;53498;50.422;14.912;2023-05-20T11:13:37;10.00;;;6.80;;
66626;SDS011;53498;50.422;14.912;2023-05-20T11:16:03;10.43;;;6.90;;
66626;SDS011;53498;50.422;14.912;2023-05-20T11:18:29;10.38;;;6.28;;
66626;SDS011;53498;50.422;14.912;2023-05-20T11:20:59;8.00;;;6.55;;
66626;SDS011;53498;50.422;14.912;2023-05-20T11:23:26;9.50;;;6.82;;
66626;SDS011;53498;50.422;14.912;2023-05-20T11:25:52;9.70;;;7.65;;
66626;SDS011;53498;50.422;14.912;2023-05-20T11:28:19;11.25;;;7.32;;
66626;SDS011;53498;50.422;14.912;2023-05-20T11:30:46;8.55;;;6.93;;
66626;SDS011;53498;50.422;14.912;2023-05-20T11:33:12;9.13;;;7.13;;
66626;SDS011;53498;50.422;14.912;2023-05-20T11:35:50;9.82;;;7.20;;
66626;SDS011;53498;50.422;14.912;2023-05-20T11:38:17;10.70;;;7.18;;
66626;SDS011;53498;50.422;14.912;2023-05-20T11:40:45;10.00;;;6.85;;
66626;SDS011;53498;50.422;14.912;2023-05-20T11:43:12;10.70;;;6.93;;
66626;SDS011;53498;50.422;14.912;2023-05-20T11:45:43;8.82;;;6.22;;
66626;SDS011;53498;50.422;14.912;2023-05-20T11:48:09;9.23;;;6.85;;
66626;SDS011;53498;50.422;14.912;2023-05-20T11:50:46;9.00;;;6.20;;
66626;SDS011;53498;50.422;14.912;2023-05-20T11:53:19;11.02;;;6.88;;
66626;SDS011;53498;50.422;14.912;2023-05-20T11:55:47;8.45;;;6.55;;
66626;SDS011;53498;50.422;14.912;2023-05-20T11:58:19;7.47;;;5.57;;
66626;SDS011;53498;50.422;14.912;2023-05-20T12:00:53;6.97;;;5.85;;
66626;SDS011;53498;50.422;14.912;2023-05-20T12:03:18;8.30;;;6.20;;
66626;SDS011;53498;50.422;14.912;2023-05-20T12:05:44;9.23;;;6.25;;
66626;SDS011;53498;50.422;14.912;2023-05-20T12:08:12;8.02;;;6.10;;
66626;SDS011;53498;50.422;14.912;2023-05-20T12:10:37;9.38;;;6.13;;
66626;SDS011;53498;50.422;14.912;2023-05-20T12:13:03;8.52;;;5.88;;
66626;SDS011;53498;50.422;14.912;2023-05-20T12:15:29;10.23;;;6.13;;
66626;SDS011;53498;50.422;14.912;2023-05-20T12:17:55;8.23;;;5.80;;
66626;SDS011;53498;50.422;14.912;2023-05-20T12:20:21;7.47;;;6.13;;
66626;SDS011;53498;50.422;14.912;2023-05-20T12:22:48;8.95;;;5.70;;
66626;SDS011;53498;50.422;14.912;2023-05-20T12:25:15;7.60;;;5.78;;
66626;SDS011;53498;50.422;14.912;2023-05-20T12:27:41;7.10;;;5.57;;
66626;SDS011;53498;50.422;14.912;2023-05-20T12:30:08;7.60;;;6.30;;
66626;SDS011;53498;50.422;14.912;2023-05-20T12:32:34;8.65;;;6.28;;
66626;SDS011;53498;50.422;14.912;2023-05-20T12:35:03;7.18;;;6.15;;
66626;SDS011;53498;50.422;14.912;2023-05-20T12:37:29;8.57;;;6.15;;
66626;SDS011;53498;50.422;14.912;2023-05-20T12:39:55;10.10;;;6.50;;
66626;SDS011;53498;50.422;14.912;2023-05-20T12:42:20;7.25;;;6.55;;
66626;SDS011;53498;50.422;14.912;2023-05-20T12:44:46;8.38;;;6.63;;
66626;SDS011;53498;50.422;14.912;2023-05-20T12:47:12;9.43;;;6.43;;
66626;SDS011;53498;50.422;14.912;2023-05-20T12:49:37;8.23;;;7.03;;
66626;SDS011;53498;50.422;14.912;2023-05-20T12:52:03;9.20;;;6.38;;
66626;SDS011;53498;50.422;14.912;2023-05-20T12:54:28;8.40;;;6.47;;
66626;SDS011;53498;50.422;14.912;2023-05-20T12:56:54;9.02;;;6.57;;
66626;SDS011;53498;50.422;14.912;2023-05-20T12:59:20;8.38;;;6.68;;
66626;SDS011;53498;50.422;14.912;2023-05-20T13:01:46;9.05;;;6.88;;
66626;SDS011;53498;50.422;14.912;2023-05-20T13:04:12;8.68;;;7.38;;
66626;SDS011;53498;50.422;14.912;2023-05-20T13:06:38;9.38;;;7.07;;
66626;SDS011;53498;50.422;14.912;2023-05-20T13:09:03;8.38;;;7.20;;
66626;SDS011;53498;50.422;14.912;2023-05-20T13:11:29;10.45;;;7.50;;
66626;SDS011;53498;50.422;14.912;2023-05-20T13:13:54;9.80;;;7.15;;
66626;SDS011;53498;50.422;14.912;2023-05-20T13:16:21;8.70;;;6.65;;
66626;SDS011;53498;50.422;14.912;2023-05-20T13:18:48;9.00;;;7.05;;
66626;SDS011;53498;50.422;14.912;2023-05-20T13:21:13;10.20;;;7.30;;
66626;SDS011;53498;50.422;14.912;2023-05-20T13:23:40;9.65;;;6.43;;
66626;SDS011;53498;50.422;14.912;2023-05-20T13:26:06;8.25;;;7.05;;
66626;SDS011;53498;50.422;14.912;2023-05-20T13:28:31;10.38;;;7.72;;
66626;SDS011;53498;50.422;14.912;2023-05-20T13:30:57;9.23;;;7.05;;
66626;SDS011;53498;50.422;14.912;2023-05-20T13:33:22;11.93;;;6.40;;
66626;SDS011;53498;50.422;14.912;2023-05-20T13:35:49;8.57;;;6.68;;
66626;SDS011;53498;50.422;14.912;2023-05-20T13:38:14;11.15;;;7.70;;
66626;SDS011;53498;50.422;14.912;2023-05-20T13:40:40;8.25;;;6.13;;
66626;SDS011;53498;50.422;14.912;2023-05-20T13:43:06;9.65;;;6.93;;
66626;SDS011;53498;50.422;14.912;2023-05-20T13:45:31;9.05;;;7.32;;
66626;SDS011;53498;50.422;14.912;2023-05-20T13:47:57;9.90;;;7.22;;
66626;SDS011;53498;50.422;14.912;2023-05-20T13:50:24;9.95;;;7.45;;
66626;SDS011;53498;50.422;14.912;2023-05-20T13:52:50;9.95;;;7.03;;
66626;SDS011;53498;50.422;14.912;2023-05-20T13:55:16;11.93;;;7.45;;
66626;SDS011;53498;50.422;14.912;2023-05-20T13:57:41;8.00;;;6.50;;
66626;SDS011;53498;50.422;14.912;2023-05-20T14:00:07;8.70;;;7.03;;
66626;SDS011;53498;50.422;14.912;2023-05-20T14:02:34;8.70;;;6.93;;
66626;SDS011;53498;50.422;14.912;2023-05-20T14:05:00;9.18;;;7.00;;
66626;SDS011;53498;50.422;14.912;2023-05-20T14:07:25;9.43;;;6.78;;
66626;SDS011;53498;50.422;14.912;2023-05-20T14:09:51;8.35;;;6.88;;
66626;SDS011;53498;50.422;14.912;2023-05-20T14:12:16;9.77;;;7.32;;
66626;SDS011;53498;50.422;14.912;2023-05-20T14:14:42;8.65;;;6.90;;
66626;SDS011;53498;50.422;14.912;2023-05-20T14:17:08;12.98;;;6.80;;
66626;SDS011;53498;50.422;14.912;2023-05-20T14:19:33;12.30;;;7.15;;
66626;SDS011;53498;50.422;14.912;2023-05-20T14:21:59;9.73;;;8.20;;
66626;SDS011;53498;50.422;14.912;2023-05-20T14:24:25;12.80;;;9.95;;